Skip Navigation Links Skip Navigation Links

Current Weather

Eureka, Nunavut

For information only: do not use for flight planning or navigation.
Latest weather
Observation time Friday, November 17, 2017 3:00 PM CST
Local time Friday, November 17, 2017 3:19 PM CST
Flight conditions Visual Meteorological Conditions
Winds
Wind direction East-Northeast (60°)
Winds variable from 60° to 130°
Wind speed 5 mph
Visibility 15 mi.
Sky condition
Ceiling unlimited
Sky clear
Temperature -33°F
Dewpoint -40°F
Altimeter 30.41 in.Hg
Derived measurements
Relative humidity 66%
Wind chill -48°F
Density altitude -7336 ft.
Sea-level pressure 30.42 in.Hg
METAR CWEU 172100Z 06004KT 060V130 15SM SKC M36/M40 A3041 RMK SLP303

Settings

Location code

InnerDrive.Weather 4.0.6144.1 Release CLR 4.0.30319.36366
Copyright ©2015 Inner Drive Technology. All rights reserved. Portions Copyright ©1986-2015 David Braverman.

Find weather

Site navigation


Skip Navigation Links

Place info

Page info

PayPal - The safer, easier way to pay online!

Return home.

Copyright ©2017 Inner Drive Technology. Purveyors of fine, hand-crafted computer software. Page printed 2017-11-17T21:19:05 UTC.